Yaounde, Cameroon
Current Conditions -  °F | °C
As of 9:00 AM on Sunday 26 Oct 2014 (Local Time) from FKYS Reporting Station
Broken Clouds Broken Clouds  
Wind Chill: 24°   Ceiling: 600
Heat Index: 24°   Visibility: 5mi
Dew Point: 21°   Wind: 1mph
Humidity: 83%   Direction: NA
Pressure: 30.06"   Gusts: NA
Location:  3.87°N, 11.52°E
Report Text: FKYS 260800Z VRB01KT 8000 BKN006 24/21 Q1018 BECMG BKN010
Loading
Personal Weather Stations






























Interactive Weather Map
Tropical Storm Tracking
New forecast layout! Learn more

10-Day Weather Forecast

Advertisements
Track Severe Weather on mobile